CheckWX is a tool to help pilots better visualize weather data.  It is not intended as a substitute for an official pre-flight weather briefing.

12:24:11 UTC

KAWG METAR
Washington Municipal Airport
Washington, Iowa, USA
Current

2 hours ago

KAWG 060955Z AUTO 14006KT 10SM FEW045 05/03 A3004 RMK AO2
Observed
Apr-6 @ 09:55 UTC
Wind
  • 140° at 6 KTS
Visibility
Flight Rules
VFR
Cloud Levels
  • Few at 4,500' AGL
Temperature
C / 41°F
Dewpoint
C / 37°F
Humidity
87%
Altimeter
30.04" Hg
Pressure
1017.32 hPa
Previous

3 hours ago

KAWG 060935Z AUTO 16005KT 10SM FEW047 05/03 A3004 RMK AO2
Observed
Apr-6 @ 09:35 UTC
Wind
  • 160° at 5 KTS
Visibility
Flight Rules
VFR
Cloud Levels
  • Few at 4,700' AGL
Temperature
C / 41°F
Dewpoint
C / 37°F
Humidity
87%
Altimeter
30.04" Hg
Pressure
1017.32 hPa
Previous

3 hours ago

KAWG 060915Z AUTO 16005KT 10SM CLR 06/03 A3005 RMK AO2
Observed
Apr-6 @ 09:15 UTC
Wind
  • 160° at 5 KTS
Visibility
Flight Rules
VFR
Cloud Levels
  • Clear skies
Temperature
C / 43°F
Dewpoint
C / 37°F
Humidity
81%
Altimeter
30.05" Hg
Pressure
1017.62 hPa